MSC Maria Saveria — 3FLE8 — position and weather

sailwx.info

Track history (hours):
 
Tides and Currents Weather Stations Pressure Air Temp Water Temp Dewpoint Dewpoint Depression Visibility Wind Speed Wind Dir Waves Ship Positions

MSC Maria Saveria

Last reported at 2015-Feb-01 17:33 UTC. Time now 2015-Feb-01 18:13 UTC.
Position N 51°01' E 002°10'.

Length 366 m; draft 11.4 m.

Type: Ship (hazmat cat A). MMSI: 372400000.

Date/timePositionNaut miles runAvg speedWind from/ knotsBaromVisibWave heightAir tempDewpointWater temp
2015-Feb-01 17:33N 51°01' E 002°10'1 1.0
2015-Feb-01 16:33N 51°01' E 002°11'0 0.0
2015-Feb-01 15:33N 51°01' E 002°11'0 0.0
2015-Feb-01 14:33N 51°01' E 002°11'0 0.0
2015-Feb-01 13:33N 51°01' E 002°11'0 0.0
2015-Feb-01 12:33N 51°01' E 002°11'0 0.0
2015-Feb-01 11:33N 51°01' E 002°11'0 0.0
2015-Feb-01 10:33N 51°01' E 002°11'0 0.0
2015-Feb-01 09:33N 51°01' E 002°11'0 0.0
2015-Feb-01 08:33N 51°01' E 002°11'0 0.0
2015-Feb-01 07:31N 51°01' E 002°11'0 0.0
2015-Feb-01 06:33N 51°01' E 002°11'0 0.0
2015-Feb-01 05:33N 51°01' E 002°11'0 0.0
2015-Feb-01 04:34N 51°01' E 002°11'0 0.0
2015-Feb-01 03:33N 51°01' E 002°11'0 0.0
2015-Feb-01 02:30N 51°01' E 002°11'0 0.0
2015-Feb-01 01:30N 51°01' E 002°11'0 0.0
2015-Feb-01 00:33N 51°01' E 002°11'0 0.0
2015-Jan-31 23:21N 51°01' E 002°11'0 0.0
2015-Jan-31 22:33N 51°01' E 002°11'0 0.0
2015-Jan-31 21:30N 51°01' E 002°11'0 0.0
2015-Jan-31 20:24N 51°01' E 002°11'0 0.0
2015-Jan-31 19:33N 51°01' E 002°11'0 0.0
2015-Jan-31 18:33N 51°01' E 002°11'0 0.0
2015-Jan-31 17:33N 51°01' E 002°11'0 0.0
2015-Jan-31 16:30N 51°01' E 002°11'0 0.0
2015-Jan-31 15:33N 51°01' E 002°11'0 0.3
2015-Jan-31 14:33N 51°01' E 002°11'7 6.8
2015-Jan-31 13:33N 51°02' E 002°00'1010.3
2015-Jan-31 12:33N 51°04' E 001°44'1414.4
2015-Jan-31 11:34N 51°18' E 001°52'1515.4
2015-Jan-31 10:33N 51°21' E 002°16'1817.8
2015-Jan-31 09:33N 51°23' E 002°44'1514.8
2015-Jan-31 08:33N 51°24' E 003°08'1717.0
2015-Jan-31 07:34N 51°26' E 003°35'8 8.3
2015-Jan-31 06:34N 51°22' E 003°46'1010.3
2015-Jan-31 05:33N 51°25' E 004°02'1010.0
2015-Jan-31 04:34N 51°21' E 004°16'1 0.6
2015-Jan-31 03:34N 51°21' E 004°17'1 1.4
2015-Jan-31 02:34N 51°20' E 004°19'0 0.4
2015-Jan-31 01:33N 51°19' E 004°19'0 0.0
2015-Jan-31 00:33N 51°19' E 004°19'0 0.0
2015-Jan-30 23:30N 51°19' E 004°19'0 0.0
2015-Jan-30 22:33N 51°19' E 004°19'0 0.0
2015-Jan-30 21:33N 51°19' E 004°19'0 0.0
2015-Jan-30 20:33N 51°19' E 004°19'0 0.0
2015-Jan-30 19:33N 51°19' E 004°19'0 0.0
2015-Jan-30 18:33N 51°19' E 004°19'0 0.0
2015-Jan-30 17:30N 51°19' E 004°19'0 0.0
2015-Jan-30 16:33N 51°19' E 004°19'0 0.0
2015-Jan-30 15:33N 51°19' E 004°19'0 0.0
2015-Jan-30 14:33N 51°19' E 004°19'0 0.0
2015-Jan-30 13:33N 51°19' E 004°19'0 0.0
2015-Jan-30 12:33N 51°19' E 004°19'0 0.0
2015-Jan-30 11:33N 51°19' E 004°19'0 0.0
2015-Jan-30 10:33N 51°19' E 004°19'0 0.0
2015-Jan-30 09:30N 51°19' E 004°19'0 0.0
2015-Jan-30 08:33N 51°19' E 004°19'0 0.0
2015-Jan-30 07:33N 51°19' E 004°19'0 0.0
2015-Jan-30 06:33N 51°19' E 004°19'0 0.0
2015-Jan-30 05:33N 51°19' E 004°19'0 0.0
2015-Jan-30 04:33N 51°19' E 004°19'0 0.0
2015-Jan-30 03:33N 51°19' E 004°19'0 0.0
2015-Jan-30 02:30N 51°19' E 004°19'0 0.0
2015-Jan-30 01:33N 51°19' E 004°19'1 1.1
2015-Jan-30 00:33N 51°20' E 004°18'1 0.7
2015-Jan-29 23:34N 51°21' E 004°17'1 1.2
2015-Jan-29 22:34N 51°21' E 004°15'8 8.1
2015-Jan-29 21:34N 51°23' E 004°03'9 9.4
2015-Jan-29 20:34N 51°21' E 003°48'1010.2
2015-Jan-29 19:33N 51°25' E 003°33'1313.4
2015-Jan-29 18:33N 51°24' E 003°12'8 7.7
2015-Jan-29 17:33N 51°31' E 003°07'1413.0
2015-Jan-29 16:30N 51°44' E 003°13'1112.2
2015-Jan-29 15:33N 51°55' E 003°20'1413.9
2015-Jan-29 14:33N 52°03' E 003°38'1212.1
2015-Jan-29 13:33N 52°01' E 003°57'5 5.1
2015-Jan-29 12:30N 51°58' E 004°04'0 0.0
2015-Jan-29 11:33N 51°58' E 004°04'0 0.0
2015-Jan-29 10:33N 51°58' E 004°04'0 0.0
2015-Jan-29 09:33N 51°58' E 004°04'0 0.0
2015-Jan-29 08:33N 51°58' E 004°04'0 0.0
2015-Jan-29 07:33N 51°58' E 004°04'0 0.0
2015-Jan-29 06:33N 51°58' E 004°04'0 0.0
2015-Jan-29 05:33N 51°58' E 004°04'0 0.0
2015-Jan-29 04:33N 51°58' E 004°04'0 0.0
2015-Jan-29 03:33N 51°58' E 004°04'0 0.0
2015-Jan-29 02:33N 51°58' E 004°04'0 0.0
2015-Jan-29 01:33N 51°58' E 004°04'0 0.0
2015-Jan-29 00:33N 51°58' E 004°04'0 0.0
2015-Jan-28 23:33N 51°58' E 004°04'0 0.0
2015-Jan-28 22:33N 51°58' E 004°04'0 0.0
2015-Jan-28 21:33N 51°58' E 004°04'0 0.0
2015-Jan-28 20:33N 51°58' E 004°04'0 0.0
2015-Jan-28 19:33N 51°58' E 004°04'0 0.0
2015-Jan-28 18:33N 51°58' E 004°04'0 0.0
2015-Jan-28 17:30N 51°58' E 004°04'0 0.0
2015-Jan-28 16:33N 51°58' E 004°04'0 0.0
2015-Jan-28 15:33N 51°58' E 004°04'0 0.0
2015-Jan-28 14:33N 51°58' E 004°04'0 0.0
2015-Jan-28 13:33N 51°58' E 004°04'0 0.0
2015-Jan-28 12:33N 51°58' E 004°04'0 0.0
2015-Jan-28 11:33N 51°58' E 004°04'0 0.0
2015-Jan-28 10:33N 51°58' E 004°04'4 3.6
2015-Jan-28 09:33N 52°00' E 003°59'8 8.4
2015-Jan-28 08:33N 51°59' E 003°46'1414.4
2015-Jan-28 07:33N 51°55' E 003°23'1414.4
2015-Jan-28 06:33N 51°51' E 003°01'1514.7
2015-Jan-28 05:32N 51°46' E 002°38'1515.0
2015-Jan-28 04:34N 51°36' E 002°20'1515.0
2015-Jan-28 03:33N 51°24' E 002°05'1515.3
2015-Jan-28 02:33N 51°13' E 001°49'1515.0
2015-Jan-28 01:34N 51°01' E 001°35'1514.4
2015-Jan-28 00:33N 50°48' E 001°25'1614.2
2015-Jan-27 23:24N 50°35' E 001°09'1514.4
2015-Jan-27 22:21N 50°26' E 000°49'1714.9
2015-Jan-27 21:14N 50°21' E 000°24'3913.2
2015-Jan-27 18:17N 49°48' W 000°08'1115.5
2015-Jan-27 17:34N 49°37' W 000°08'1212.4
2015-Jan-27 16:34N 49°28' E 000°06'2 1.5
2015-Jan-27 15:34N 49°28' E 000°08'0 0.0
2015-Jan-27 14:33N 49°28' E 000°08'0 0.0
2015-Jan-27 13:34N 49°28' E 000°08'0 0.0
2015-Jan-27 12:34N 49°28' E 000°08'0 0.0
2015-Jan-27 11:34N 49°28' E 000°08'0 0.0
2015-Jan-27 10:33N 49°28' E 000°08'0 0.0
2015-Jan-27 09:34N 49°28' E 000°08'0 0.0
2015-Jan-27 08:34N 49°28' E 000°08'0 0.0
2015-Jan-27 07:34N 49°28' E 000°08'0 0.0
2015-Jan-27 06:33N 49°28' E 000°08'0 0.0
2015-Jan-27 05:33N 49°28' E 000°08'0 0.0
2015-Jan-27 04:33N 49°28' E 000°08'0 0.0
2015-Jan-27 03:34N 49°28' E 000°08'0 0.0
2015-Jan-27 02:33N 49°28' E 000°08'0 0.0
2015-Jan-27 01:34N 49°28' E 000°08'0 0.0
2015-Jan-27 00:33N 49°28' E 000°08'0 0.0
2015-Jan-26 23:34N 49°28' E 000°08'0 0.0
2015-Jan-26 22:34N 49°28' E 000°08'0 0.0
2015-Jan-26 21:34N 49°28' E 000°08'0 0.0
2015-Jan-26 20:33N 49°28' E 000°08'0 0.0
2015-Jan-26 19:33N 49°28' E 000°08'0 0.0
2015-Jan-26 18:34N 49°28' E 000°08'0 0.0
2015-Jan-26 17:33N 49°28' E 000°08'0 0.0
2015-Jan-26 16:34N 49°28' E 000°08'0 0.0
2015-Jan-26 15:34N 49°28' E 000°08'0 0.0
2015-Jan-26 14:34N 49°28' E 000°08'0 0.0
2015-Jan-26 13:33N 49°28' E 000°08'0 0.0
2015-Jan-26 12:34N 49°28' E 000°08'0 0.0
2015-Jan-26 11:33N 49°28' E 000°08'4 3.8
2015-Jan-26 10:33N 49°30' E 000°03'1010.4
2015-Jan-26 09:33N 49°33' W 000°12'1414.2
2015-Jan-26 08:33N 49°38' W 000°32'5914.6
2015-Jan-26 04:32N 49°52' W 002°00'1414.2
2015-Jan-26 03:34N 49°53' W 002°22'1414.3
2015-Jan-26 02:33N 49°49' W 002°43'70816.8
2015-Jan-24 08:29N 39°10' W 009°52'1616.4
2015-Jan-24 07:30N 38°54' W 009°52'1616.6
2015-Jan-24 06:33N 38°38' W 009°50'1717.2
2015-Jan-24 05:33N 38°25' W 009°35'1817.5
2015-Jan-24 04:33N 38°13' W 009°19'1717.6
2015-Jan-24 03:33N 38°00' W 009°04'1211.7
2015-Jan-24 02:33N 37°55' W 008°50'1 0.6
2015-Jan-24 01:33N 37°56' W 008°51'0 0.0
2015-Jan-24 00:33N 37°56' W 008°51'0 0.0
2015-Jan-23 23:33N 37°56' W 008°51'0 0.0
2015-Jan-23 22:33N 37°56' W 008°51'0 0.0
2015-Jan-23 21:33N 37°56' W 008°51'0 0.0
2015-Jan-23 20:33N 37°56' W 008°51'0 0.0
2015-Jan-23 19:33N 37°56' W 008°51'0 0.0
2015-Jan-23 18:33N 37°56' W 008°51'0 0.0
2015-Jan-23 17:33N 37°56' W 008°51'0 0.0
2015-Jan-23 16:33N 37°56' W 008°51'0 0.0
2015-Jan-23 15:33N 37°56' W 008°51'0 0.0
2015-Jan-23 14:33N 37°56' W 008°51'0 0.0
2015-Jan-23 13:33N 37°56' W 008°51'0 0.0
2015-Jan-23 12:33N 37°56' W 008°51'0 0.0
2015-Jan-23 11:33N 37°56' W 008°51'0 0.0
2015-Jan-23 10:33N 37°56' W 008°51'0 0.0
2015-Jan-23 09:32N 37°56' W 008°51'0 0.0
2015-Jan-23 08:33N 37°56' W 008°51'0 0.0
2015-Jan-23 07:33N 37°56' W 008°51'1 0.8
2015-Jan-23 06:33N 37°55' W 008°50'5 4.9
2015-Jan-23 05:33N 37°51' W 008°53'1414.2
2015-Jan-23 04:33N 37°38' W 008°60'1414.3
2015-Jan-23 03:33N 37°25' W 009°07'4610.8
2015-Jan-22 23:14N 36°40' W 008°51'  
Track history (hours):
 
Tides and Currents Weather Stations Pressure Air Temp Water Temp Dewpoint Dewpoint Depression Visibility Wind Speed Wind Dir Waves Ship Positions

MSC Maria Saveria

Last reported at 2015-Feb-01 17:33 UTC. Time now 2015-Feb-01 18:13 UTC.
Position N 51°01' E 002°10'.

Length 366 m; draft 11.4 m.

Type: Ship (hazmat cat A). MMSI: 372400000.

Date/timePositionNaut miles runAvg speedWind from/ knotsBaromVisibWave heightAir tempDewpointWater temp
2015-Feb-01 17:33N 51°01' E 002°10'1 1.0
2015-Feb-01 16:33N 51°01' E 002°11'0 0.0
2015-Feb-01 15:33N 51°01' E 002°11'0 0.0
2015-Feb-01 14:33N 51°01' E 002°11'0 0.0
2015-Feb-01 13:33N 51°01' E 002°11'0 0.0
2015-Feb-01 12:33N 51°01' E 002°11'0 0.0
2015-Feb-01 11:33N 51°01' E 002°11'0 0.0
2015-Feb-01 10:33N 51°01' E 002°11'0 0.0
2015-Feb-01 09:33N 51°01' E 002°11'0 0.0
2015-Feb-01 08:33N 51°01' E 002°11'0 0.0
2015-Feb-01 07:31N 51°01' E 002°11'0 0.0
2015-Feb-01 06:33N 51°01' E 002°11'0 0.0
2015-Feb-01 05:33N 51°01' E 002°11'0 0.0
2015-Feb-01 04:34N 51°01' E 002°11'0 0.0
2015-Feb-01 03:33N 51°01' E 002°11'0 0.0
2015-Feb-01 02:30N 51°01' E 002°11'0 0.0
2015-Feb-01 01:30N 51°01' E 002°11'0 0.0
2015-Feb-01 00:33N 51°01' E 002°11'0 0.0
2015-Jan-31 23:21N 51°01' E 002°11'0 0.0
2015-Jan-31 22:33N 51°01' E 002°11'0 0.0
2015-Jan-31 21:30N 51°01' E 002°11'0 0.0
2015-Jan-31 20:24N 51°01' E 002°11'0 0.0
2015-Jan-31 19:33N 51°01' E 002°11'0 0.0
2015-Jan-31 18:33N 51°01' E 002°11'0 0.0
2015-Jan-31 17:33N 51°01' E 002°11'0 0.0
2015-Jan-31 16:30N 51°01' E 002°11'0 0.0
2015-Jan-31 15:33N 51°01' E 002°11'0 0.3
2015-Jan-31 14:33N 51°01' E 002°11'7 6.8
2015-Jan-31 13:33N 51°02' E 002°00'1010.3
2015-Jan-31 12:33N 51°04' E 001°44'1414.4
2015-Jan-31 11:34N 51°18' E 001°52'1515.4
2015-Jan-31 10:33N 51°21' E 002°16'1817.8
2015-Jan-31 09:33N 51°23' E 002°44'1514.8
2015-Jan-31 08:33N 51°24' E 003°08'1717.0
2015-Jan-31 07:34N 51°26' E 003°35'8 8.3
2015-Jan-31 06:34N 51°22' E 003°46'1010.3
2015-Jan-31 05:33N 51°25' E 004°02'1010.0
2015-Jan-31 04:34N 51°21' E 004°16'1 0.6
2015-Jan-31 03:34N 51°21' E 004°17'1 1.4
2015-Jan-31 02:34N 51°20' E 004°19'0 0.4
2015-Jan-31 01:33N 51°19' E 004°19'0 0.0
2015-Jan-31 00:33N 51°19' E 004°19'0 0.0
2015-Jan-30 23:30N 51°19' E 004°19'0 0.0
2015-Jan-30 22:33N 51°19' E 004°19'0 0.0
2015-Jan-30 21:33N 51°19' E 004°19'0 0.0
2015-Jan-30 20:33N 51°19' E 004°19'0 0.0
2015-Jan-30 19:33N 51°19' E 004°19'0 0.0
2015-Jan-30 18:33N 51°19' E 004°19'0 0.0
2015-Jan-30 17:30N 51°19' E 004°19'0 0.0
2015-Jan-30 16:33N 51°19' E 004°19'0 0.0
2015-Jan-30 15:33N 51°19' E 004°19'0 0.0
2015-Jan-30 14:33N 51°19' E 004°19'0 0.0
2015-Jan-30 13:33N 51°19' E 004°19'0 0.0
2015-Jan-30 12:33N 51°19' E 004°19'0 0.0
2015-Jan-30 11:33N 51°19' E 004°19'0 0.0
2015-Jan-30 10:33N 51°19' E 004°19'0 0.0
2015-Jan-30 09:30N 51°19' E 004°19'0 0.0
2015-Jan-30 08:33N 51°19' E 004°19'0 0.0
2015-Jan-30 07:33N 51°19' E 004°19'0 0.0
2015-Jan-30 06:33N 51°19' E 004°19'0 0.0
2015-Jan-30 05:33N 51°19' E 004°19'0 0.0
2015-Jan-30 04:33N 51°19' E 004°19'0 0.0
2015-Jan-30 03:33N 51°19' E 004°19'0 0.0
2015-Jan-30 02:30N 51°19' E 004°19'0 0.0
2015-Jan-30 01:33N 51°19' E 004°19'1 1.1
2015-Jan-30 00:33N 51°20' E 004°18'1 0.7
2015-Jan-29 23:34N 51°21' E 004°17'1 1.2
2015-Jan-29 22:34N 51°21' E 004°15'8 8.1
2015-Jan-29 21:34N 51°23' E 004°03'9 9.4
2015-Jan-29 20:34N 51°21' E 003°48'1010.2
2015-Jan-29 19:33N 51°25' E 003°33'1313.4
2015-Jan-29 18:33N 51°24' E 003°12'8 7.7
2015-Jan-29 17:33N 51°31' E 003°07'1413.0
2015-Jan-29 16:30N 51°44' E 003°13'1112.2
2015-Jan-29 15:33N 51°55' E 003°20'1413.9
2015-Jan-29 14:33N 52°03' E 003°38'1212.1
2015-Jan-29 13:33N 52°01' E 003°57'5 5.1
2015-Jan-29 12:30N 51°58' E 004°04'0 0.0
2015-Jan-29 11:33N 51°58' E 004°04'0 0.0
2015-Jan-29 10:33N 51°58' E 004°04'0 0.0
2015-Jan-29 09:33N 51°58' E 004°04'0 0.0
2015-Jan-29 08:33N 51°58' E 004°04'0 0.0
2015-Jan-29 07:33N 51°58' E 004°04'0 0.0
2015-Jan-29 06:33N 51°58' E 004°04'0 0.0
2015-Jan-29 05:33N 51°58' E 004°04'0 0.0
2015-Jan-29 04:33N 51°58' E 004°04'0 0.0
2015-Jan-29 03:33N 51°58' E 004°04'0 0.0
2015-Jan-29 02:33N 51°58' E 004°04'0 0.0
2015-Jan-29 01:33N 51°58' E 004°04'0 0.0
2015-Jan-29 00:33N 51°58' E 004°04'0 0.0
2015-Jan-28 23:33N 51°58' E 004°04'0 0.0
2015-Jan-28 22:33N 51°58' E 004°04'0 0.0
2015-Jan-28 21:33N 51°58' E 004°04'0 0.0
2015-Jan-28 20:33N 51°58' E 004°04'0 0.0
2015-Jan-28 19:33N 51°58' E 004°04'0 0.0
2015-Jan-28 18:33N 51°58' E 004°04'0 0.0
2015-Jan-28 17:30N 51°58' E 004°04'0 0.0
2015-Jan-28 16:33N 51°58' E 004°04'0 0.0
2015-Jan-28 15:33N 51°58' E 004°04'0 0.0
2015-Jan-28 14:33N 51°58' E 004°04'0 0.0
2015-Jan-28 13:33N 51°58' E 004°04'0 0.0
2015-Jan-28 12:33N 51°58' E 004°04'0 0.0
2015-Jan-28 11:33N 51°58' E 004°04'0 0.0
2015-Jan-28 10:33N 51°58' E 004°04'4 3.6
2015-Jan-28 09:33N 52°00' E 003°59'8 8.4
2015-Jan-28 08:33N 51°59' E 003°46'1414.4
2015-Jan-28 07:33N 51°55' E 003°23'1414.4
2015-Jan-28 06:33N 51°51' E 003°01'1514.7
2015-Jan-28 05:32N 51°46' E 002°38'1515.0
2015-Jan-28 04:34N 51°36' E 002°20'1515.0
2015-Jan-28 03:33N 51°24' E 002°05'1515.3
2015-Jan-28 02:33N 51°13' E 001°49'1515.0
2015-Jan-28 01:34N 51°01' E 001°35'1514.4
2015-Jan-28 00:33N 50°48' E 001°25'1614.2
2015-Jan-27 23:24N 50°35' E 001°09'1514.4
2015-Jan-27 22:21N 50°26' E 000°49'1714.9
2015-Jan-27 21:14N 50°21' E 000°24'3913.2
2015-Jan-27 18:17N 49°48' W 000°08'1115.5
2015-Jan-27 17:34N 49°37' W 000°08'1212.4
2015-Jan-27 16:34N 49°28' E 000°06'2 1.5
2015-Jan-27 15:34N 49°28' E 000°08'0 0.0
2015-Jan-27 14:33N 49°28' E 000°08'0 0.0
2015-Jan-27 13:34N 49°28' E 000°08'0 0.0
2015-Jan-27 12:34N 49°28' E 000°08'0 0.0
2015-Jan-27 11:34N 49°28' E 000°08'0 0.0
2015-Jan-27 10:33N 49°28' E 000°08'0 0.0
2015-Jan-27 09:34N 49°28' E 000°08'0 0.0
2015-Jan-27 08:34N 49°28' E 000°08'0 0.0
2015-Jan-27 07:34N 49°28' E 000°08'0 0.0
2015-Jan-27 06:33N 49°28' E 000°08'0 0.0
2015-Jan-27 05:33N 49°28' E 000°08'0 0.0
2015-Jan-27 04:33N 49°28' E 000°08'0 0.0
2015-Jan-27 03:34N 49°28' E 000°08'0 0.0
2015-Jan-27 02:33N 49°28' E 000°08'0 0.0
2015-Jan-27 01:34N 49°28' E 000°08'0 0.0
2015-Jan-27 00:33N 49°28' E 000°08'0 0.0
2015-Jan-26 23:34N 49°28' E 000°08'0 0.0
2015-Jan-26 22:34N 49°28' E 000°08'0 0.0
2015-Jan-26 21:34N 49°28' E 000°08'0 0.0
2015-Jan-26 20:33N 49°28' E 000°08'0 0.0
2015-Jan-26 19:33N 49°28' E 000°08'0 0.0
2015-Jan-26 18:34N 49°28' E 000°08'0 0.0
2015-Jan-26 17:33N 49°28' E 000°08'0 0.0
2015-Jan-26 16:34N 49°28' E 000°08'0 0.0
2015-Jan-26 15:34N 49°28' E 000°08'0 0.0
2015-Jan-26 14:34N 49°28' E 000°08'0 0.0
2015-Jan-26 13:33N 49°28' E 000°08'0 0.0
2015-Jan-26 12:34N 49°28' E 000°08'0 0.0
2015-Jan-26 11:33N 49°28' E 000°08'4 3.8
2015-Jan-26 10:33N 49°30' E 000°03'1010.4
2015-Jan-26 09:33N 49°33' W 000°12'1414.2
2015-Jan-26 08:33N 49°38' W 000°32'5914.6
2015-Jan-26 04:32N 49°52' W 002°00'1414.2
2015-Jan-26 03:34N 49°53' W 002°22'1414.3
2015-Jan-26 02:33N 49°49' W 002°43'70816.8
2015-Jan-24 08:29N 39°10' W 009°52'1616.4
2015-Jan-24 07:30N 38°54' W 009°52'1616.6
2015-Jan-24 06:33N 38°38' W 009°50'1717.2
2015-Jan-24 05:33N 38°25' W 009°35'1817.5
2015-Jan-24 04:33N 38°13' W 009°19'1717.6
2015-Jan-24 03:33N 38°00' W 009°04'1211.7
2015-Jan-24 02:33N 37°55' W 008°50'1 0.6
2015-Jan-24 01:33N 37°56' W 008°51'0 0.0
2015-Jan-24 00:33N 37°56' W 008°51'0 0.0
2015-Jan-23 23:33N 37°56' W 008°51'0 0.0
2015-Jan-23 22:33N 37°56' W 008°51'0 0.0
2015-Jan-23 21:33N 37°56' W 008°51'0 0.0
2015-Jan-23 20:33N 37°56' W 008°51'0 0.0
2015-Jan-23 19:33N 37°56' W 008°51'0 0.0
2015-Jan-23 18:33N 37°56' W 008°51'0 0.0
2015-Jan-23 17:33N 37°56' W 008°51'0 0.0
2015-Jan-23 16:33N 37°56' W 008°51'0 0.0
2015-Jan-23 15:33N 37°56' W 008°51'0 0.0
2015-Jan-23 14:33N 37°56' W 008°51'0 0.0
2015-Jan-23 13:33N 37°56' W 008°51'0 0.0
2015-Jan-23 12:33N 37°56' W 008°51'0 0.0
2015-Jan-23 11:33N 37°56' W 008°51'0 0.0
2015-Jan-23 10:33N 37°56' W 008°51'0 0.0
2015-Jan-23 09:32N 37°56' W 008°51'0 0.0
2015-Jan-23 08:33N 37°56' W 008°51'0 0.0
2015-Jan-23 07:33N 37°56' W 008°51'1 0.8
2015-Jan-23 06:33N 37°55' W 008°50'5 4.9
2015-Jan-23 05:33N 37°51' W 008°53'1414.2
2015-Jan-23 04:33N 37°38' W 008°60'1414.3
2015-Jan-23 03:33N 37°25' W 009°07'4610.8
2015-Jan-22 23:14N 36°40' W 008°51'  

Dump ship's entire track history